Time;durP1;ratioP1;P1;durP2;ratioP2;P2;SDS_P1;SDS_P2;PMS_P1;PMS_P2;Temp;Humidity;BMP_temperature;BMP_pressure;BME280_temperature;BME280_humidity;BME280_pressure;Samples;Min_cycle;Max_cycle;Signal;HPM_P1;HPM_P2
2022/05/02 00:00:47;;;;;;;4.67;4.10;;;;;;;;;;12630259;28;20032;-79
2022/05/02 00:06:49;;;;;;;5.05;4.63;;;;;;;;;;12629364;28;20390;-79
2022/05/02 00:12:51;;;;;;;4.37;4.07;;;;;;;;;;12629175;28;20028;-80
2022/05/02 00:18:52;;;;;;;4.83;4.43;;;;;;;;;;12647057;28;20024;-79
2022/05/02 00:24:54;;;;;;;4.67;4.27;;;;;;;;;;12628376;28;20028;-79
2022/05/02 00:30:56;;;;;;;5.13;4.35;;;;;;;;;;12628530;28;20230;-80
2022/05/02 00:36:58;;;;;;;4.07;3.77;;;;;;;;;;12627484;28;20396;-79
2022/05/02 00:43:00;;;;;;;3.85;3.55;;;;;;;;;;12627250;28;20028;-79
2022/05/02 00:49:01;;;;;;;4.33;3.97;;;;;;;;;;12627260;28;20044;-79
2022/05/02 00:55:04;;;;;;;4.10;3.75;;;;;;;;;;12627172;28;20032;-79
2022/05/02 01:01:06;;;;;;;4.00;3.60;;;;;;;;;;12627441;28;20507;-79
2022/05/02 01:07:20;;;;;;;4.07;3.77;;;;;;;;;;12644796;28;20039;-79
2022/05/02 01:13:40;;;;;;;2.53;2.33;;;;;;;;;;12644834;28;20040;-79
2022/05/02 01:19:43;;;;;;;4.10;3.80;;;;;;;;;;12609616;28;20388;-79
2022/05/02 01:25:44;;;;;;;2.70;2.47;;;;;;;;;;12644007;28;20382;-80
2022/05/02 01:31:46;;;;;;;4.17;3.77;;;;;;;;;;12610082;28;20052;-79
2022/05/02 01:37:48;;;;;;;3.22;2.92;;;;;;;;;;12608956;28;20497;-79
2022/05/02 01:43:50;;;;;;;4.45;4.05;;;;;;;;;;12608759;28;20035;-79
2022/05/02 01:49:52;;;;;;;4.47;4.07;;;;;;;;;;12608758;28;20031;-79
2022/05/02 01:55:53;;;;;;;4.35;3.95;;;;;;;;;;12630871;28;20044;-79
2022/05/02 02:01:55;;;;;;;4.37;3.50;;;;;;;;;;12635307;28;20468;-79
2022/05/02 02:07:57;;;;;;;5.25;3.80;;;;;;;;;;12618961;28;20413;-79
2022/05/02 02:13:59;;;;;;;3.90;3.53;;;;;;;;;;12652835;28;20062;-79
2022/05/02 02:20:01;;;;;;;3.37;3.17;;;;;;;;;;12652156;28;20032;-79
2022/05/02 02:26:04;;;;;;;4.28;3.78;;;;;;;;;;12617568;28;20027;-79
2022/05/02 02:32:06;;;;;;;3.40;3.13;;;;;;;;;;12651778;28;20504;-80
2022/05/02 02:38:12;;;;;;;3.78;3.47;;;;;;;;;;12633346;28;20044;-80
2022/05/02 02:44:14;;;;;;;3.33;3.05;;;;;;;;;;12633298;28;20032;-80
2022/05/02 02:50:16;;;;;;;3.37;3.13;;;;;;;;;;12651092;28;20397;-80
2022/05/02 02:56:17;;;;;;;3.25;3.05;;;;;;;;;;12650655;28;20048;-80
2022/05/02 03:02:19;;;;;;;3.53;3.23;;;;;;;;;;12632661;28;20051;-80
2022/05/02 03:08:22;;;;;;;3.63;3.30;;;;;;;;;;12631677;28;20036;-80
2022/05/02 03:14:24;;;;;;;;;;;;;;;;;;12615423;28;20051;-80
2022/05/02 03:20:25;;;;;;;2.65;2.45;;;;;;;;;;12649575;28;19915;-79
2022/05/02 03:26:27;;;;;;;3.37;3.07;;;;;;;;;;12649259;28;20024;-80
2022/05/02 03:32:29;;;;;;;2.47;2.28;;;;;;;;;;12630889;28;20059;-80
2022/05/02 03:38:30;;;;;;;3.03;2.72;;;;;;;;;;12614780;28;20408;-80
2022/05/02 03:44:32;;;;;;;2.28;2.10;;;;;;;;;;12613618;28;20043;-79
2022/05/02 03:50:34;;;;;;;2.22;2.10;;;;;;;;;;12629969;28;20028;-79
2022/05/02 03:56:36;;;;;;;2.90;2.60;;;;;;;;;;12629815;28;20044;-79
2022/05/02 04:02:37;;;;;;;2.80;2.60;;;;;;;;;;12647971;28;20039;-78
2022/05/02 04:08:39;;;;;;;2.97;2.67;;;;;;;;;;12629489;28;20043;-79
2022/05/02 04:14:41;;;;;;;2.72;2.53;;;;;;;;;;12646831;28;20050;-79
2022/05/02 04:20:43;;;;;;;3.30;3.00;;;;;;;;;;12646395;28;20036;-79
2022/05/02 04:26:45;;;;;;;2.47;2.33;;;;;;;;;;12646841;28;20036;-79
2022/05/02 04:32:47;;;;;;;2.92;2.55;;;;;;;;;;12627782;28;20044;-79
2022/05/02 04:38:48;;;;;;;2.33;2.08;;;;;;;;;;12611174;28;20493;-79
2022/05/02 04:44:50;;;;;;;2.50;2.30;;;;;;;;;;12630399;28;20386;-79
2022/05/02 04:50:52;;;;;;;2.60;2.40;;;;;;;;;;12645169;28;20032;-79
2022/05/02 04:56:54;;;;;;;1.63;1.52;;;;;;;;;;12645141;28;20044;-78
2022/05/02 05:02:56;;;;;;;3.03;2.83;;;;;;;;;;12627143;28;20035;-78
2022/05/02 05:08:59;;;;;;;2.85;2.65;;;;;;;;;;12610598;28;20493;-78
2022/05/02 05:21:33;;;;;;;3.80;3.00;;;;;;;;;;12644622;28;20032;-78
2022/05/02 05:27:41;;;;;;;3.03;2.83;;;;;;;;;;12625725;28;20366;-78
2022/05/02 05:33:45;;;;;;;4.22;3.83;;;;;;;;;;12625439;28;20055;-78
2022/05/02 05:40:07;;;;;;;2.50;2.30;;;;;;;;;;12562795;28;20036;-78
2022/05/02 05:46:28;;;;;;;2.70;2.50;;;;;;;;;;12566996;28;20028;-78
2022/05/02 05:53:03;;;;;;;3.38;3.17;;;;;;;;;;12560471;28;20036;-77
2022/05/02 05:59:29;;;;;;;4.68;3.63;;;;;;;;;;12546740;28;20052;-77
2022/05/02 06:05:42;;;;;;;;;;;;;;;;;;12570899;28;20032;-78
2022/05/02 06:11:48;;;;;;;8.55;7.05;;;;;;;;;;12557154;28;20353;-78
2022/05/02 06:24:13;;;;;;;4.55;4.15;;;;;;;;;;12574891;28;20033;-76
2022/05/02 06:30:15;;;;;;;4.07;3.67;;;;;;;;;;12575970;28;20043;-77
2022/05/02 06:36:29;;;;;;;12.10;11.03;;;;;;;;;;12528613;28;20064;-77
2022/05/02 06:42:39;;;;;;;18.00;16.13;;;;;;;;;;12525589;28;20540;-78
2022/05/02 06:48:49;;;;;;;13.13;11.93;;;;;;;;;;12530736;28;20413;-75
2022/05/02 06:54:57;;;;;;;9.80;8.80;;;;;;;;;;12516040;28;20044;-78
2022/05/02 07:01:05;;;;;;;8.40;6.88;;;;;;;;;;12520534;28;20033;-77
2022/05/02 07:07:11;;;;;;;6.03;5.53;;;;;;;;;;12507971;28;20049;-78
2022/05/02 07:13:18;;;;;;;4.65;4.07;;;;;;;;;;12517871;28;20044;-79
2022/05/02 07:19:50;;;;;;;3.67;3.38;;;;;;;;;;12515182;28;20047;-78
2022/05/02 07:25:57;;;;;;;11.40;7.88;;;;;;;;;;12458664;28;20040;-78
2022/05/02 07:32:01;;;;;;;13.88;11.20;;;;;;;;;;12546494;28;20048;-78
2022/05/02 07:38:05;;;;;;;16.73;14.50;;;;;;;;;;12560311;28;20076;-78
2022/05/02 07:44:08;;;;;;;12.10;7.20;;;;;;;;;;12586315;28;20529;-78
2022/05/02 07:50:13;;;;;;;5.57;5.07;;;;;;;;;;12568709;28;20067;-78
2022/05/02 07:56:16;;;;;;;10.50;9.57;;;;;;;;;;12568630;28;20068;-77
2022/05/02 08:02:18;;;;;;;7.00;6.35;;;;;;;;;;12579027;28;20556;-78
2022/05/02 08:08:26;;;;;;;5.65;5.15;;;;;;;;;;12600632;28;20087;-78
2022/05/02 08:14:51;;;;;;;4.90;4.50;;;;;;;;;;12594989;28;20078;-79
2022/05/02 08:21:01;;;;;;;6.15;4.72;;;;;;;;;;12575657;28;20063;-79
2022/05/02 08:27:25;;;;;;;12.15;11.10;;;;;;;;;;12603346;28;20076;-78
2022/05/02 08:33:30;;;;;;;10.82;9.05;;;;;;;;;;12607363;28;20102;-80
2022/05/02 08:39:37;;;;;;;6.30;5.70;;;;;;;;;;12633977;28;21203;-77
2022/05/02 08:45:42;;;;;;;3.95;3.30;;;;;;;;;;12640872;28;20039;-78
2022/05/02 08:52:10;;;;;;;4.93;4.22;;;;;;;;;;12613429;28;20034;-78
2022/05/02 08:58:26;;;;;;;4.80;2.55;;;;;;;;;;12549257;28;20076;-79
2022/05/02 09:04:28;;;;;;;6.32;5.72;;;;;;;;;;12627160;28;20028;-79
2022/05/02 09:10:39;;;;;;;7.43;6.72;;;;;;;;;;12593596;28;20487;-79
2022/05/02 09:16:56;;;;;;;4.25;3.85;;;;;;;;;;12615132;28;20044;-78
2022/05/02 09:23:00;;;;;;;39.63;36.20;;;;;;;;;;12617572;28;20523;-78
2022/05/02 09:29:30;;;;;;;28.73;26.33;;;;;;;;;;12631969;28;20039;-78
2022/05/02 09:35:38;;;;;;;31.67;28.95;;;;;;;;;;12628825;28;20056;-78
2022/05/02 09:41:46;;;;;;;25.80;23.30;;;;;;;;;;12628202;28;20035;-78
2022/05/02 10:01:13;;;;;;;3.50;3.20;;;;;;;;;;12627480;28;20039;-78
2022/05/02 10:07:21;;;;;;;2.30;2.10;;;;;;;;;;12629992;28;20408;-79
2022/05/02 10:13:27;;;;;;;1.90;1.80;;;;;;;;;;12625799;28;20040;-81
2022/05/02 10:19:38;;;;;;;1.30;1.20;;;;;;;;;;12636205;28;20051;-79
2022/05/02 10:25:55;;;;;;;1.30;1.20;;;;;;;;;;12640164;28;20058;-80
2022/05/02 10:32:04;;;;;;;1.30;1.20;;;;;;;;;;12641144;28;20408;-84
2022/05/02 10:38:07;;;;;;;1.27;1.17;;;;;;;;;;12638962;28;20090;-84
2022/05/02 10:44:09;;;;;;;1.48;0.98;;;;;;;;;;12619541;28;20016;-82
2022/05/02 10:50:14;;;;;;;1.20;1.10;;;;;;;;;;12631528;28;20036;-81
2022/05/02 10:56:35;;;;;;;0.90;0.90;;;;;;;;;;12630148;28;20040;-83
2022/05/02 11:02:41;;;;;;;0.98;0.98;;;;;;;;;;12639601;28;20032;-80
2022/05/02 11:08:49;;;;;;;1.70;1.10;;;;;;;;;;12632548;28;20036;-84
2022/05/02 11:14:57;;;;;;;2.78;1.13;;;;;;;;;;12642502;28;20401;-79
2022/05/02 11:21:22;;;;;;;1.60;1.05;;;;;;;;;;12612403;28;20028;-79
2022/05/02 11:27:33;;;;;;;1.10;1.10;;;;;;;;;;12616487;28;20499;-79
2022/05/02 11:33:35;;;;;;;1.70;1.20;;;;;;;;;;12628840;28;20378;-79
2022/05/02 11:39:37;;;;;;;0.67;0.67;;;;;;;;;;12620627;28;20299;-80
2022/05/02 11:45:50;;;;;;;0.98;0.88;;;;;;;;;;12624478;28;20313;-80
2022/05/02 11:51:53;;;;;;;1.15;1.10;;;;;;;;;;12628803;28;20035;-80
2022/05/02 11:58:02;;;;;;;1.10;1.10;;;;;;;;;;12624944;28;20051;-79
2022/05/02 12:04:05;;;;;;;0.90;0.90;;;;;;;;;;12606291;28;20063;-81
2022/05/02 12:10:09;;;;;;;1.65;0.98;;;;;;;;;;12596588;28;20528;-81
2022/05/02 12:16:13;;;;;;;0.63;0.63;;;;;;;;;;12598745;28;20040;-81
2022/05/02 12:22:22;;;;;;;1.33;0.75;;;;;;;;;;12589459;28;20047;-80
2022/05/02 12:28:45;;;;;;;2.38;2.20;;;;;;;;;;12589145;28;20068;-81
2022/05/02 12:34:52;;;;;;;1.73;1.63;;;;;;;;;;12586328;28;20479;-81
2022/05/02 12:41:01;;;;;;;1.40;1.30;;;;;;;;;;12588004;28;20118;-80
2022/05/02 12:47:05;;;;;;;9.38;8.60;;;;;;;;;;12580610;28;20039;-81
2022/05/02 12:53:17;;;;;;;5.20;4.80;;;;;;;;;;12605442;28;21066;-79
2022/05/02 13:05:41;;;;;;;4.13;3.83;;;;;;;;;;12635546;28;20412;-79
2022/05/02 13:11:45;;;;;;;2.97;2.53;;;;;;;;;;12636111;28;20060;-78
2022/05/02 13:17:49;;;;;;;5.25;4.95;;;;;;;;;;12959155;22;20050;-79
2022/05/02 13:23:51;;;;;;;10.73;9.82;;;;;;;;;;12515150;28;20032;-77
2022/05/02 13:29:58;;;;;;;11.30;10.38;;;;;;;;;;12495617;28;20032;-78
2022/05/02 13:36:04;;;;;;;6.10;5.60;;;;;;;;;;12481235;28;20075;-77
2022/05/02 13:42:10;;;;;;;4.20;3.90;;;;;;;;;;12522131;28;20417;-78
2022/05/02 13:48:15;;;;;;;3.97;2.80;;;;;;;;;;12542095;28;20037;-78
2022/05/02 13:54:23;;;;;;;2.22;2.10;;;;;;;;;;12519206;28;20039;-77
2022/05/02 14:12:51;;;;;;;8.57;7.97;;;;;;;;;;12502218;28;20042;-81
2022/05/02 14:18:54;;;;;;;8.90;8.20;;;;;;;;;;12503248;28;20057;-81
2022/05/02 14:24:58;;;;;;;5.60;5.20;;;;;;;;;;12501584;28;20033;-81
2022/05/02 14:31:00;;;;;;;5.18;4.70;;;;;;;;;;12500945;28;20061;-81
2022/05/02 14:37:02;;;;;;;3.65;3.35;;;;;;;;;;12503092;28;20417;-82
2022/05/02 14:43:04;;;;;;;2.75;2.55;;;;;;;;;;12501912;28;20037;-82
2022/05/02 14:49:07;;;;;;;2.35;2.20;;;;;;;;;;12501593;28;20044;-82
2022/05/02 14:55:09;;;;;;;2.05;1.90;;;;;;;;;;12502444;28;20072;-82
2022/05/02 15:01:14;;;;;;;2.17;1.95;;;;;;;;;;12500789;28;20033;-82
2022/05/02 15:07:19;;;;;;;2.80;2.60;;;;;;;;;;12502759;28;20493;-82
2022/05/02 15:13:23;;;;;;;2.45;2.25;;;;;;;;;;12500607;28;20367;-83
2022/05/02 15:19:48;;;;;;;3.00;2.80;;;;;;;;;;12499324;28;20065;-82
2022/05/02 15:25:51;;;;;;;3.20;2.55;;;;;;;;;;12489147;28;20053;-82
2022/05/02 15:38:22;;;;;;;2.20;2.10;;;;;;;;;;12499841;28;20048;-82
2022/05/02 15:44:24;;;;;;;2.00;1.70;;;;;;;;;;12499340;28;20037;-82
2022/05/02 15:50:25;;;;;;;2.00;1.90;;;;;;;;;;12497917;28;20030;-83
2022/05/02 15:56:27;;;;;;;2.38;2.28;;;;;;;;;;12498208;28;20041;-82
2022/05/02 16:02:30;;;;;;;2.50;2.30;;;;;;;;;;12496691;28;20029;-82
2022/05/02 16:14:54;;;;;;;2.50;2.30;;;;;;;;;;12496266;28;20053;-82
2022/05/02 16:21:00;;;;;;;2.15;2.05;;;;;;;;;;12463378;28;20061;-82
2022/05/02 16:27:03;;;;;;;3.85;2.22;;;;;;;;;;12446222;28;20030;-82
2022/05/02 16:33:05;;;;;;;2.58;2.25;;;;;;;;;;12446257;28;20026;-82
2022/05/02 16:39:09;;;;;;;2.00;1.88;;;;;;;;;;12446830;28;20367;-82
2022/05/02 16:45:12;;;;;;;2.42;2.22;;;;;;;;;;12445703;28;20033;-82
2022/05/02 16:51:29;;;;;;;1.65;1.48;;;;;;;;;;12445594;28;20038;-83
2022/05/02 16:57:39;;;;;;;2.45;1.98;;;;;;;;;;12445447;28;20038;-82
2022/05/02 17:03:45;;;;;;;2.38;1.83;;;;;;;;;;12446269;28;20394;-83
2022/05/02 17:09:47;;;;;;;2.03;1.92;;;;;;;;;;12444736;28;20038;-82
2022/05/02 17:15:56;;;;;;;1.88;1.63;;;;;;;;;;12445345;28;20304;-83
2022/05/02 17:22:02;;;;;;;1.95;1.85;;;;;;;;;;12444683;28;20042;-83
2022/05/02 17:28:07;;;;;;;2.13;2.03;;;;;;;;;;12445279;28;20037;-83
2022/05/02 17:34:10;;;;;;;2.65;2.45;;;;;;;;;;12444754;28;20030;-82
2022/05/02 17:40:18;;;;;;;2.88;2.55;;;;;;;;;;12445477;28;20046;-83
2022/05/02 17:46:33;;;;;;;2.75;1.88;;;;;;;;;;12444367;28;20041;-82
2022/05/02 17:52:35;;;;;;;4.25;3.85;;;;;;;;;;12445020;28;20034;-83
2022/05/02 17:58:39;;;;;;;2.85;2.33;;;;;;;;;;12443412;28;20057;-82
2022/05/02 18:04:53;;;;;;;2.75;2.30;;;;;;;;;;12445633;28;20029;-82
2022/05/02 18:11:03;;;;;;;2.95;2.75;;;;;;;;;;12444624;28;20471;-82
2022/05/02 18:17:23;;;;;;;2.20;2.00;;;;;;;;;;12443939;28;20054;-82
2022/05/02 18:23:25;;;;;;;1.73;1.63;;;;;;;;;;12442820;28;20037;-79
2022/05/02 18:29:27;;;;;;;2.33;2.17;;;;;;;;;;12442778;28;20034;-85
2022/05/02 18:42:06;;;;;;;2.38;2.17;;;;;;;;;;12452208;28;20034;-82
2022/05/02 18:54:30;;;;;;;2.83;2.63;;;;;;;;;;12451733;28;20037;-80
2022/05/02 19:00:37;;;;;;;2.97;2.20;;;;;;;;;;12452809;28;20479;-81
2022/05/02 19:06:44;;;;;;;3.45;2.55;;;;;;;;;;12451217;28;20037;-80
2022/05/02 19:12:53;;;;;;;3.95;2.30;;;;;;;;;;12449668;28;20041;-83
2022/05/02 19:18:55;;;;;;;4.15;2.60;;;;;;;;;;12450031;28;20142;-83
2022/05/02 19:25:07;;;;;;;2.47;2.25;;;;;;;;;;12452206;28;20379;-80
2022/05/02 19:31:18;;;;;;;2.90;2.53;;;;;;;;;;12450548;28;20029;-83
2022/05/02 19:43:47;;;;;;;2.65;2.45;;;;;;;;;;12449692;28;20042;-81
2022/05/02 19:49:49;;;;;;;2.45;2.25;;;;;;;;;;12449274;28;20049;-82
2022/05/02 19:55:51;;;;;;;4.10;3.22;;;;;;;;;;12431743;28;20085;-82
2022/05/02 20:01:53;;;;;;;3.70;2.75;;;;;;;;;;12449142;28;20041;-83
2022/05/02 20:07:55;;;;;;;3.53;2.30;;;;;;;;;;12449133;28;20038;-84
2022/05/02 20:13:57;;;;;;;3.10;2.80;;;;;;;;;;12447462;28;20041;-83
2022/05/02 20:19:59;;;;;;;4.70;4.17;;;;;;;;;;12446955;28;20058;-83
2022/05/02 20:26:01;;;;;;;4.40;3.90;;;;;;;;;;12448039;28;20276;-83
2022/05/02 20:38:25;;;;;;;3.97;3.57;;;;;;;;;;12447148;28;20038;-84
2022/05/02 20:44:30;;;;;;;4.18;3.10;;;;;;;;;;12447014;28;20284;-84
2022/05/02 20:50:32;;;;;;;4.05;3.45;;;;;;;;;;12450164;28;20045;-85
2022/05/02 20:56:34;;;;;;;4.07;3.67;;;;;;;;;;12445676;28;20045;-87
2022/05/02 21:02:38;;;;;;;5.22;3.58;;;;;;;;;;12444958;28;20048;-84
2022/05/02 21:08:40;;;;;;;3.58;3.28;;;;;;;;;;12428834;28;20037;-84
2022/05/02 21:14:51;;;;;;;3.40;3.20;;;;;;;;;;12445836;28;20470;-84
2022/05/02 21:20:53;;;;;;;3.83;3.53;;;;;;;;;;12445777;28;20062;-85
2022/05/02 21:27:01;;;;;;;4.50;3.42;;;;;;;;;;12445533;28;20042;-84
2022/05/02 21:33:07;;;;;;;4.18;3.85;;;;;;;;;;12444409;28;20045;-84
2022/05/02 21:39:12;;;;;;;4.38;3.95;;;;;;;;;;12445698;28;20045;-84
2022/05/02 21:45:14;;;;;;;4.45;3.63;;;;;;;;;;12444393;28;20054;-84
2022/05/02 21:51:16;;;;;;;4.43;3.97;;;;;;;;;;12443884;28;20037;-84
2022/05/02 21:57:17;;;;;;;3.50;3.20;;;;;;;;;;12444691;28;20041;-84
2022/05/02 22:03:20;;;;;;;4.50;4.10;;;;;;;;;;12445299;28;20037;-84
2022/05/02 22:09:21;;;;;;;;;;;;;;;;;;12444948;28;20038;-84
2022/05/02 22:15:23;;;;;;;4.32;4.03;;;;;;;;;;12453418;28;20004;-84
2022/05/02 22:21:25;;;;;;;4.10;3.70;;;;;;;;;;12454683;28;20130;-84
2022/05/02 22:27:27;;;;;;;3.72;3.42;;;;;;;;;;12453789;28;20030;-84
2022/05/02 22:33:29;;;;;;;4.17;3.83;;;;;;;;;;12435878;28;20042;-84
2022/05/02 22:39:30;;;;;;;3.27;2.97;;;;;;;;;;12452226;28;20037;-84
2022/05/02 22:45:32;;;;;;;4.27;3.23;;;;;;;;;;12453906;28;20374;-84
2022/05/02 22:51:34;;;;;;;3.33;3.08;;;;;;;;;;12451514;28;20044;-84
2022/05/02 22:57:38;;;;;;;3.43;3.13;;;;;;;;;;12452513;28;20046;-84
2022/05/02 23:03:52;;;;;;;2.88;2.55;;;;;;;;;;12452332;28;20038;-84
2022/05/02 23:09:55;;;;;;;3.20;2.58;;;;;;;;;;12452038;28;20049;-84
2022/05/02 23:15:59;;;;;;;2.17;2.08;;;;;;;;;;12450454;28;20475;-84
2022/05/02 23:22:02;;;;;;;3.03;2.58;;;;;;;;;;12450152;28;20041;-83
2022/05/02 23:28:04;;;;;;;2.42;2.22;;;;;;;;;;12450050;28;20033;-84
2022/05/02 23:34:06;;;;;;;3.40;2.70;;;;;;;;;;12449505;28;20040;-84
2022/05/02 23:40:11;;;;;;;2.67;2.45;;;;;;;;;;12450398;28;20315;-84
2022/05/02 23:46:28;;;;;;;2.70;2.50;;;;;;;;;;12450567;28;20118;-84
2022/05/02 23:52:40;;;;;;;2.13;1.80;;;;;;;;;;12449908;28;20053;-83
2022/05/02 23:58:42;;;;;;;;;;;;;;;;;;12448582;28;20546;-83
